• Join FlightAware (Why Join?)
  • Login
  • US Flag 
07:51AM EDT


 

Airport Tracker/Info


-or-


 

Live Flight TrackerFlight Track Log ✈ SWA3497 ✈ 29-Apr-2013 ✈ KSDF - KBWI

Flight Track Log - Related Links

Times and Time Zones

All times are in EDT time to prevent confusion due to time zone crossing. See the SWA3497 flight status page for this flight to view local times or setup timezone preferences in your user account.

Time Position Orientation Groundspeed Altitude Reporting Facility
EDT Latitude Longitude Course Direction KTS MPH feet Rate Location/Type
02:04PM 38.0878 -85.7103 100° East 186 214 4,500  Level Indianapolis Center
02:05PM 38.0744 -85.6117 100° East 273 314 6,600 2,580 Climbing Indianapolis Center
02:06PM 38.0811 -85.5089 85° East 286 329 9,900 2,760 Climbing Indianapolis Center
02:07PM 38.0844 -85.3950 88° East 319 367 12,400 2,760 Climbing Indianapolis Center
02:08PM 38.0978 -85.2675 82° East 356 410 15,700 3,120 Climbing Indianapolis Center
02:09PM 38.1086 -85.1303 84° East 375 432 18,900 2,880 Climbing Indianapolis Center
02:10PM 38.1208 -84.9906 84° East 395 455 21,700 2,460 Climbing Indianapolis Center
02:11PM 38.1339 -84.8464 83° East 407 468 24,100 2,220 Climbing Indianapolis Center
02:12PM 38.1461 -84.6950 84° East 428 493 26,300 2,220 Climbing Indianapolis Center
02:13PM 38.1608 -84.5153 84° East 438 504 28,700 1,980 Climbing Indianapolis Center
02:14PM 38.1733 -84.3556 84° East 453 521 30,500 1,080 Climbing Indianapolis Center
02:15PM 38.1864 -84.1939 84° East 457 526 31,000 720 Climbing Indianapolis Center
02:16PM 38.1992 -84.0331 84° East 457 526 32,100 1,500 Climbing Indianapolis Center
02:17PM 38.2108 -83.8736 85° East 452 520 34,100 1,740 Climbing Indianapolis Center
02:18PM 38.2225 -83.7156 85° East 448 516 35,700 1,380 Climbing Indianapolis Center
02:19PM 38.2356 -83.5283 85° East 452 520 37,000 600 Climbing Indianapolis Center
02:20PM 38.2467 -83.3711 85° East 447 514 37,000 180 Level Indianapolis Center
02:21PM 38.2589 -83.2131 84° East 448 516 37,400 600 Climbing Indianapolis Center
02:22PM 38.2692 -83.0506 85° East 457 526 38,300 780 Climbing Indianapolis Center
02:23PM 38.2794 -82.8867 85° East 462 532 39,000 300 Climbing Indianapolis Center
02:24PM 38.2900 -82.7247 85° East 459 528 39,000  Level Indianapolis Center
02:25PM 38.3011 -82.5642 85° East 455 524 39,000  Level Indianapolis Center
02:26PM 38.3128 -82.3908 85° East 455 524 39,000  Level Indianapolis Center
02:28PM 38.3225 -82.2319 85° East 453 521 39,000  Level Indianapolis Center
02:29PM 38.3333 -82.0733 85° East 451 519 39,000  Level Indianapolis Center
02:30PM 38.3422 -81.9119 86° East 457 526 39,000  Level Indianapolis Center
02:31PM 38.3489 -81.7178 87° East 462 532 39,000  Level Indianapolis Center
02:32PM 38.3433 -81.5558 92° East 462 532 39,000  Level Indianapolis Center
02:33PM 38.3381 -81.3931 92° East 465 535 39,000  Level Indianapolis Center
02:34PM 38.3319 -81.2306 93° East 465 535 39,000  Level Indianapolis Center
02:35PM 38.3272 -81.0761 92° East 464 534 39,000  Level Washington Center
02:36PM 38.3203 -80.9089 93° East 464 534 39,000  Level Washington Center
02:37PM 38.3147 -80.7497 92° East 464 534 39,000  Level Washington Center
02:38PM 38.3092 -80.5825 92° East 464 534 39,000  Level Washington Center
02:39PM 38.3028 -80.4392 93° East 464 534 39,000  Level Washington Center
02:40PM 38.2967 -80.2747 93° East 464 534 39,000  Level Washington Center
02:41PM 38.2906 -80.1103 93° East 464 534 39,000  Level Washington Center
02:42PM 38.2819 -79.9458 94° East 464 534 39,000 -240 Level Washington Center
02:43PM 38.2772 -79.7842 92° East 464 534 38,600 -1,740 Descending Washington Center
02:44PM 38.2689 -79.6011 93° East 464 534 35,600 -2,640 Descending Washington Center
02:45PM 38.2619 -79.4367 93° East 464 534 33,300 -2,220 Descending Washington Center
02:46PM 38.2833 -79.2817 80° East 444 511 31,200 -2,100 Descending Washington Center
02:47PM 38.3211 -79.1328 72° East 444 511 29,200 -2,040 Descending Washington Center
02:48PM 38.3583 -79.0047 70° East 429 494 27,100 -1,140 Descending Washington Center
02:49PM 38.3958 -78.8528 72° East 424 488 27,000 -180 Descending Washington Center
02:50PM 38.4308 -78.7167 72° East 412 474 26,800 -660 Descending Washington Center
02:51PM 38.4633 -78.5828 73° East 402 463 25,800 -1,020 Descending Washington Center
02:52PM 38.4958 -78.4486 73° East 395 455 24,800 -1,020 Descending Washington Center
02:53PM 38.5281 -78.3147 73° East 390 449 23,800 -1,020 Descending Washington Center
02:54PM 38.5622 -78.1831 72° East 390 449 22,800 -1,140 Descending Washington Center
02:55PM 38.5942 -78.0542 72° East 390 449 21,600 -1,560 Descending Washington Center
02:56PM 38.6258 -77.9275 72° East 379 436 19,800 -1,320 Descending Washington Center
02:57PM 38.6450 -77.8033 79° East 367 422 19,000 -420 Descending Washington Center
02:58PM 38.6514 -77.6758 86° East 367 422 19,000 -300 Level Washington Center
02:59PM 38.6578 -77.5458 86° East 362 417 18,400 -1,020 Descending Washington Center
02:59PM 38.6667 -77.5000 76° East 357 411 17,700 -1,980 Descending Potomac TRACON
03:00PM 38.6667 -77.3833 90° East 353 406 16,000 -1,260 Descending Potomac TRACON
03:01PM 38.6833 -77.2667 80° East 338 389 15,400 -1,140 Descending Potomac TRACON
03:02PM 38.6833 -77.1500 90° East 325 374 13,800 -1,680 Descending Potomac TRACON
03:03PM 38.6833 -77.0500 90° East 323 372 12,100 -1,320 Descending Potomac TRACON
03:04PM 38.7000 -76.9167 81° East 308 354 11,200 -1,080 Descending Potomac TRACON
03:05PM 38.6983 -76.8525 92° East 304 350 10,200 -1,140 Descending Washington Center
03:07PM 38.7500 -76.6500 72° East 276 318 7,900 -1,200 Descending Potomac TRACON
03:08PM 38.7833 -76.5667 63° Northeast 281 323 6,500 -1,200 Descending Potomac TRACON
03:09PM 38.8500 -76.5333 21° North 287 330 5,600 -1,020 Descending Potomac TRACON
03:10PM 38.9333 -76.5833 335° Northwest 279 321 4,400 -780 Descending Potomac TRACON
03:11PM 39.0000 -76.6500 322° Northwest 280 322 4,000 -240 Descending Potomac TRACON
03:12PM 39.0333 -76.7167 303° West 278 320 4,000  Level Potomac TRACON
03:13PM 39.0667 -76.8000 297° West 273 314 4,000 -540 Level Potomac TRACON
03:14PM 39.0833 -76.8833 284° West 258 297 3,000 -900 Descending Potomac TRACON
03:15PM 39.1333 -76.9167 333° Northwest 245 282 2,200 -540 Descending Potomac TRACON
03:16PM 39.1833 -76.8833 27° Northeast 204 235 2,000 -120 Descending Potomac TRACON
03:17PM 39.1833 -76.8333 90° East 151 174 2,000 -240 Level Potomac TRACON
03:18PM 39.1833 -76.7833 90° East 143 165 1,600 -540 Descending Potomac TRACON
03:19PM 39.1833 -76.7500 90° East 127 146 1,000 -600 Descending Potomac TRACON